createdAt,value
2022-12-03T00:02:40.599Z,101776.91
2022-12-03T00:08:02.939Z,101781.16
2022-12-03T00:13:24.769Z,101776.47
2022-12-03T00:18:46.654Z,101770.38
2022-12-03T00:24:08.755Z,101778.53
2022-12-03T00:29:30.523Z,101772.16
2022-12-03T00:34:52.586Z,101761.19
2022-12-03T00:40:14.725Z,101763.75
2022-12-03T00:45:36.506Z,101763.03
2022-12-03T00:50:58.292Z,101762.47
2022-12-03T00:56:20.088Z,101757.84
2022-12-03T01:01:41.937Z,101754.41
2022-12-03T01:07:04.167Z,101753.88
2022-12-03T01:12:25.931Z,101753.00
2022-12-03T01:17:47.713Z,101749.63
2022-12-03T01:23:09.522Z,101752.75
2022-12-03T01:28:31.301Z,101757.13
2022-12-03T01:33:53.098Z,101751.63
2022-12-03T01:39:14.884Z,101741.66
2022-12-03T01:44:39.131Z,101749.28
2022-12-03T01:50:07.016Z,101749.63
2022-12-03T01:55:29.202Z,101738.16
2022-12-03T02:00:51.287Z,101741.00
2022-12-03T02:06:21.442Z,101741.88
2022-12-03T02:11:48.698Z,101734.09
2022-12-03T02:17:11.418Z,101736.69
2022-12-03T02:22:52.205Z,101740.88
2022-12-03T02:28:14.046Z,101743.00
2022-12-03T02:33:36.115Z,101729.25
2022-12-03T02:38:57.936Z,101741.41
2022-12-03T02:44:19.904Z,101740.00
2022-12-03T02:49:42.227Z,101747.22
2022-12-03T02:55:06.726Z,101744.28
2022-12-03T03:00:28.889Z,101746.06
2022-12-03T03:05:51.035Z,101745.81
2022-12-03T03:11:12.916Z,101739.56
2022-12-03T03:16:35.178Z,101737.88
2022-12-03T03:21:57.077Z,101729.97
2022-12-03T03:27:18.932Z,101734.09
2022-12-03T03:32:41.941Z,101728.09
2022-12-03T03:38:04.704Z,101722.50
2022-12-03T03:43:26.836Z,101735.16
2022-12-03T03:48:50.138Z,101729.97
2022-12-03T03:54:12.659Z,101720.53
2022-12-03T03:59:34.690Z,101707.28
2022-12-03T04:04:56.560Z,101719.09
2022-12-03T04:10:19.160Z,101722.78
2022-12-03T04:15:41.050Z,101716.38
2022-12-03T04:21:02.876Z,101720.66
2022-12-03T04:26:24.873Z,101720.13
2022-12-03T04:31:46.700Z,101718.13
2022-12-03T04:37:08.963Z,101709.78
2022-12-03T04:42:30.714Z,101710.53
2022-12-03T04:47:52.501Z,101710.34
2022-12-03T04:53:14.782Z,101712.75
2022-12-03T04:58:36.565Z,101704.28
2022-12-03T05:03:58.436Z,101712.69
2022-12-03T05:09:20.493Z,101699.03
2022-12-03T05:14:42.296Z,101687.25
2022-12-03T05:20:04.497Z,101694.41
2022-12-03T05:25:26.324Z,101695.91
2022-12-03T05:30:48.258Z,101694.34
2022-12-03T05:36:10.105Z,101686.09
2022-12-03T05:41:31.888Z,101679.31
2022-12-03T05:46:53.667Z,101691.44
2022-12-03T05:52:15.431Z,101678.00
2022-12-03T05:57:37.508Z,101680.72
2022-12-03T06:03:00.044Z,101678.25
2022-12-03T06:08:21.958Z,101670.47
2022-12-03T06:13:43.832Z,101688.94
2022-12-03T06:19:05.600Z,101684.50
2022-12-03T06:24:27.578Z,101677.22
2022-12-03T06:29:49.412Z,101672.28
2022-12-03T06:35:11.446Z,101693.31
2022-12-03T06:40:33.290Z,101689.38
2022-12-03T06:45:55.037Z,101692.50
2022-12-03T06:51:16.858Z,101680.72
2022-12-03T06:56:44.886Z,101702.31
2022-12-03T07:02:07.349Z,101706.94
2022-12-03T07:07:29.234Z,101706.38
2022-12-03T07:12:51.033Z,101713.28
2022-12-03T07:18:12.837Z,101708.03
2022-12-03T07:23:34.740Z,101705.88
2022-12-03T07:28:56.523Z,101698.97
2022-12-03T07:34:18.585Z,101697.66
2022-12-03T07:39:40.397Z,101692.53
2022-12-03T07:45:02.308Z,101691.59
2022-12-03T07:50:24.097Z,101681.28
2022-12-03T07:55:46.017Z,101689.38
2022-12-03T08:01:07.932Z,101685.38
2022-12-03T08:06:29.738Z,101687.91
2022-12-03T08:11:52.234Z,101677.44
2022-12-03T08:17:14.722Z,101684.75
2022-12-03T08:22:36.479Z,101676.28
2022-12-03T08:28:17.649Z,101679.50
2022-12-03T08:33:40.391Z,101688.03
2022-12-03T08:39:34.763Z,101684.00
2022-12-03T08:44:58.133Z,101686.97
2022-12-03T08:50:36.033Z,101683.66
2022-12-03T08:55:59.263Z,101690.44
2022-12-03T09:01:26.894Z,101684.75
2022-12-03T09:06:49.551Z,101679.22
2022-12-03T09:12:11.362Z,101673.94
2022-12-03T09:17:33.907Z,101669.56
2022-12-03T09:22:55.842Z,101676.06
2022-12-03T09:28:17.611Z,101666.91
2022-12-03T09:33:39.642Z,101664.34
2022-12-03T09:39:01.490Z,101657.59
2022-12-03T09:44:23.399Z,101641.31
2022-12-03T09:49:45.496Z,101643.97
2022-12-03T09:55:15.544Z,101638.53
2022-12-03T10:00:37.320Z,101643.84
2022-12-03T10:05:59.160Z,101661.34
2022-12-03T10:11:25.055Z,101644.59
2022-12-03T10:16:47.051Z,101637.16
2022-12-03T10:22:09.082Z,101631.22
2022-12-03T10:27:31.178Z,101615.91
2022-12-03T10:32:52.999Z,101621.69
2022-12-03T10:38:17.609Z,101629.09
2022-12-03T10:43:39.422Z,101633.13
2022-12-03T10:49:17.948Z,101622.75
2022-12-03T10:54:39.743Z,101619.78
2022-12-03T11:00:01.621Z,101623.38
2022-12-03T11:05:27.083Z,101607.44
2022-12-03T11:10:57.693Z,101605.75
2022-12-03T11:16:41.288Z,101600.56
2022-12-03T11:22:06.070Z,101601.22
2022-12-03T11:27:27.889Z,101605.53
2022-12-03T11:33:01.680Z,101608.66
2022-12-03T11:38:38.928Z,101615.06
2022-12-03T11:44:22.634Z,101607.84
2022-12-03T11:49:47.858Z,101595.66
2022-12-03T11:55:24.384Z,101593.81
2022-12-03T12:00:54.181Z,101605.81
2022-12-03T12:06:21.370Z,101590.09
2022-12-03T12:11:43.248Z,101586.03
2022-12-03T12:17:28.677Z,101574.00
2022-12-03T12:22:51.623Z,101579.16
2022-12-03T12:28:13.686Z,101592.34
2022-12-03T12:33:35.943Z,101576.56
2022-12-03T12:38:59.722Z,101571.88
2022-12-03T12:44:22.506Z,101568.34
2022-12-03T12:49:47.345Z,101561.06
2022-12-03T12:55:13.362Z,101566.03
2022-12-03T13:00:35.334Z,101566.88
2022-12-03T13:05:57.585Z,101561.16
2022-12-03T13:11:25.376Z,101561.72
2022-12-03T13:16:48.676Z,101573.09
2022-12-03T13:22:18.554Z,101577.44
2022-12-03T13:27:40.851Z,101567.91
2022-12-03T13:33:12.815Z,101573.84
2022-12-03T13:38:34.824Z,101580.47
2022-12-03T13:43:56.921Z,101577.41
2022-12-03T13:49:21.571Z,101586.69
2022-12-03T13:54:43.527Z,101583.63
2022-12-03T14:00:06.194Z,101585.03
2022-12-03T14:05:27.967Z,101587.78
2022-12-03T14:10:50.169Z,101591.09
2022-12-03T14:16:14.043Z,101598.38
2022-12-03T14:21:35.989Z,101591.97
2022-12-03T14:26:57.790Z,101584.72
2022-12-03T14:32:19.779Z,101574.91
2022-12-03T14:37:41.555Z,101580.78
2022-12-03T14:43:03.377Z,101587.69
2022-12-03T14:48:25.152Z,101595.31
2022-12-03T14:53:47.241Z,101584.25
2022-12-03T14:59:09.022Z,101574.47
2022-12-03T15:04:46.240Z,101585.03
2022-12-03T15:10:08.513Z,101597.84
2022-12-03T15:15:30.441Z,101604.50
2022-12-03T15:20:52.315Z,101613.09
2022-12-03T15:26:14.103Z,101601.94
2022-12-03T15:31:35.971Z,101613.97
2022-12-03T15:36:57.780Z,101606.63
2022-12-03T15:42:19.799Z,101614.16
2022-12-03T15:47:42.030Z,101622.41
2022-12-03T15:53:03.834Z,101624.66
2022-12-03T15:58:25.617Z,101626.00
2022-12-03T16:03:47.674Z,101628.56
2022-12-03T16:09:09.445Z,101636.25
2022-12-03T16:14:31.403Z,101619.41
2022-12-03T16:19:53.410Z,101640.88
2022-12-03T16:25:15.499Z,101640.00
2022-12-03T16:30:37.496Z,101634.69
2022-12-03T16:35:59.333Z,101636.34
2022-12-03T16:41:21.381Z,101634.31
2022-12-03T16:46:43.291Z,101644.38
2022-12-03T16:52:05.221Z,101640.69
2022-12-03T16:57:33.194Z,101640.09
2022-12-03T17:02:55.638Z,101624.69
2022-12-03T17:08:17.553Z,101640.66
2022-12-03T17:13:39.365Z,101642.38
2022-12-03T17:19:01.110Z,101635.03
2022-12-03T17:24:22.927Z,101644.41
2022-12-03T17:29:44.715Z,101631.94
2022-12-03T17:35:06.960Z,101626.47
2022-12-03T17:40:28.809Z,101621.59
2022-12-03T17:45:50.624Z,101628.44
2022-12-03T17:51:12.408Z,101628.97
2022-12-03T17:56:34.179Z,101619.22
2022-12-03T18:01:56.045Z,101641.63
2022-12-03T18:07:17.886Z,101633.31
2022-12-03T18:12:39.669Z,101640.00
2022-12-03T18:18:01.466Z,101634.22
2022-12-03T18:23:23.270Z,101621.72
2022-12-03T18:28:45.046Z,101629.91
2022-12-03T18:34:06.873Z,101633.69
2022-12-03T18:39:38.304Z,101642.59
2022-12-03T18:45:01.073Z,101627.72
2022-12-03T18:50:22.935Z,101622.94
2022-12-03T18:55:47.276Z,101629.22
2022-12-03T19:01:16.740Z,101633.44
2022-12-03T19:06:38.714Z,101623.09
2022-12-03T19:12:00.837Z,101630.84
2022-12-03T19:17:22.679Z,101638.06
2022-12-03T19:22:44.945Z,101632.34
2022-12-03T19:28:06.904Z,101648.13
2022-12-03T19:33:29.904Z,101633.16
2022-12-03T19:38:57.237Z,101630.44
2022-12-03T19:44:19.541Z,101625.78
2022-12-03T19:49:41.432Z,101615.56
2022-12-03T19:55:03.704Z,101629.91
2022-12-03T20:00:25.463Z,101620.53
2022-12-03T20:05:47.498Z,101646.41
2022-12-03T20:11:21.660Z,101646.47
2022-12-03T20:16:45.099Z,101632.72
2022-12-03T20:22:07.312Z,101632.97
2022-12-03T20:27:29.713Z,101627.78
2022-12-03T20:32:52.053Z,101631.44
2022-12-03T20:38:13.877Z,101617.50
2022-12-03T20:43:35.898Z,101607.97
2022-12-03T20:48:58.647Z,101617.34
2022-12-03T20:54:23.963Z,101624.22
2022-12-03T20:59:45.833Z,101627.19
2022-12-03T21:05:08.104Z,101634.03
2022-12-03T21:10:29.943Z,101643.88
2022-12-03T21:16:02.978Z,101642.72
2022-12-03T21:21:24.838Z,101643.53
2022-12-03T21:26:46.825Z,101640.88
2022-12-03T21:32:08.642Z,101638.13
2022-12-03T21:37:30.507Z,101636.38
2022-12-03T21:42:52.508Z,101634.53
2022-12-03T21:48:15.259Z,101636.13
2022-12-03T21:53:43.269Z,101636.84
2022-12-03T21:59:05.439Z,101652.31
2022-12-03T22:04:27.264Z,101650.38
2022-12-03T22:09:49.067Z,101650.22
2022-12-03T22:15:18.131Z,101651.31
2022-12-03T22:20:42.288Z,101646.53
2022-12-03T22:26:06.403Z,101653.19
2022-12-03T22:31:28.302Z,101647.38
2022-12-03T22:36:50.215Z,101644.22
2022-12-03T22:42:12.104Z,101638.06
2022-12-03T22:47:33.921Z,101637.59
2022-12-03T22:52:55.738Z,101631.81
2022-12-03T22:58:17.560Z,101627.13
2022-12-03T23:03:39.445Z,101623.06
2022-12-03T23:09:01.924Z,101631.84
2022-12-03T23:14:23.783Z,101635.34
2022-12-03T23:19:45.612Z,101628.44
2022-12-03T23:25:08.179Z,101629.81
2022-12-03T23:30:30.111Z,101640.00
2022-12-03T23:35:52.004Z,101628.72
2022-12-03T23:41:17.102Z,101633.47
2022-12-03T23:46:39.622Z,101625.41
2022-12-03T23:52:01.546Z,101627.53
2022-12-03T23:57:23.514Z,101622.13
